sensor_id;sensor_type;location;lat;lon;timestamp;P1;durP1;ratioP1;P2;durP2;ratioP2
59263;SDS011;45030;42.720;23.344;2023-04-03T00:02:06;12.02;;;6.13;;
59263;SDS011;45030;42.720;23.344;2023-04-03T00:04:31;11.52;;;6.22;;
59263;SDS011;45030;42.720;23.344;2023-04-03T00:06:56;7.88;;;5.70;;
59263;SDS011;45030;42.720;23.344;2023-04-03T00:09:22;10.63;;;5.40;;
59263;SDS011;45030;42.720;23.344;2023-04-03T00:11:47;7.40;;;4.68;;
59263;SDS011;45030;42.720;23.344;2023-04-03T00:14:12;9.68;;;4.32;;
59263;SDS011;45030;42.720;23.344;2023-04-03T00:16:37;6.75;;;4.60;;
59263;SDS011;45030;42.720;23.344;2023-04-03T00:19:03;8.02;;;4.82;;
59263;SDS011;45030;42.720;23.344;2023-04-03T00:21:28;19.48;;;5.28;;
59263;SDS011;45030;42.720;23.344;2023-04-03T00:23:53;9.77;;;5.72;;
59263;SDS011;45030;42.720;23.344;2023-04-03T00:26:18;11.88;;;6.70;;
59263;SDS011;45030;42.720;23.344;2023-04-03T00:28:44;12.98;;;6.40;;
59263;SDS011;45030;42.720;23.344;2023-04-03T00:31:10;17.80;;;9.15;;
59263;SDS011;45030;42.720;23.344;2023-04-03T00:33:35;17.40;;;8.10;;
59263;SDS011;45030;42.720;23.344;2023-04-03T00:36:05;15.52;;;8.00;;
59263;SDS011;45030;42.720;23.344;2023-04-03T00:38:31;17.25;;;8.38;;
59263;SDS011;45030;42.720;23.344;2023-04-03T00:40:56;15.00;;;8.35;;
59263;SDS011;45030;42.720;23.344;2023-04-03T00:43:22;13.30;;;8.00;;
59263;SDS011;45030;42.720;23.344;2023-04-03T00:45:49;15.73;;;7.97;;
59263;SDS011;45030;42.720;23.344;2023-04-03T00:50:58;10.60;;;6.70;;
59263;SDS011;45030;42.720;23.344;2023-04-03T00:53:25;11.88;;;7.57;;
59263;SDS011;45030;42.720;23.344;2023-04-03T00:55:51;10.77;;;6.78;;
59263;SDS011;45030;42.720;23.344;2023-04-03T00:58:17;9.93;;;6.43;;
59263;SDS011;45030;42.720;23.344;2023-04-03T01:00:44;10.75;;;7.47;;
59263;SDS011;45030;42.720;23.344;2023-04-03T01:03:11;9.80;;;7.18;;
59263;SDS011;45030;42.720;23.344;2023-04-03T01:05:37;11.80;;;7.55;;
59263;SDS011;45030;42.720;23.344;2023-04-03T01:08:02;9.75;;;6.93;;
59263;SDS011;45030;42.720;23.344;2023-04-03T01:10:28;10.90;;;6.65;;
59263;SDS011;45030;42.720;23.344;2023-04-03T01:12:53;8.73;;;5.63;;
59263;SDS011;45030;42.720;23.344;2023-04-03T01:15:20;8.77;;;6.20;;
59263;SDS011;45030;42.720;23.344;2023-04-03T01:17:47;10.73;;;5.50;;
59263;SDS011;45030;42.720;23.344;2023-04-03T01:23:03;10.90;;;6.20;;
59263;SDS011;45030;42.720;23.344;2023-04-03T01:25:23;8.00;;;4.47;;
59263;SDS011;45030;42.720;23.344;2023-04-03T01:27:48;9.32;;;4.57;;
59263;SDS011;45030;42.720;23.344;2023-04-03T01:30:14;9.02;;;4.75;;
59263;SDS011;45030;42.720;23.344;2023-04-03T01:32:41;5.93;;;4.10;;
59263;SDS011;45030;42.720;23.344;2023-04-03T01:35:07;9.45;;;5.10;;
59263;SDS011;45030;42.720;23.344;2023-04-03T01:37:33;8.60;;;4.97;;
59263;SDS011;45030;42.720;23.344;2023-04-03T01:39:58;7.00;;;4.97;;
59263;SDS011;45030;42.720;23.344;2023-04-03T01:42:23;6.63;;;3.80;;
59263;SDS011;45030;42.720;23.344;2023-04-03T01:44:48;6.15;;;4.03;;
59263;SDS011;45030;42.720;23.344;2023-04-03T01:47:13;7.53;;;4.57;;
59263;SDS011;45030;42.720;23.344;2023-04-03T01:49:39;6.28;;;4.20;;
59263;SDS011;45030;42.720;23.344;2023-04-03T01:52:04;5.65;;;3.70;;
59263;SDS011;45030;42.720;23.344;2023-04-03T01:54:29;4.55;;;3.63;;
59263;SDS011;45030;42.720;23.344;2023-04-03T01:56:55;4.70;;;3.75;;
59263;SDS011;45030;42.720;23.344;2023-04-03T01:59:20;4.85;;;4.35;;
59263;SDS011;45030;42.720;23.344;2023-04-03T02:01:45;6.70;;;4.15;;
59263;SDS011;45030;42.720;23.344;2023-04-03T02:04:11;7.28;;;3.80;;
59263;SDS011;45030;42.720;23.344;2023-04-03T02:06:37;5.40;;;4.90;;
59263;SDS011;45030;42.720;23.344;2023-04-03T02:09:02;8.80;;;5.05;;
59263;SDS011;45030;42.720;23.344;2023-04-03T02:11:27;10.38;;;5.30;;
59263;SDS011;45030;42.720;23.344;2023-04-03T02:13:53;7.20;;;5.05;;
59263;SDS011;45030;42.720;23.344;2023-04-03T02:16:18;7.82;;;5.68;;
59263;SDS011;45030;42.720;23.344;2023-04-03T02:18:43;11.43;;;5.50;;
59263;SDS011;45030;42.720;23.344;2023-04-03T02:21:08;9.00;;;5.57;;
59263;SDS011;45030;42.720;23.344;2023-04-03T02:23:34;12.15;;;6.03;;
59263;SDS011;45030;42.720;23.344;2023-04-03T02:26:05;9.85;;;5.25;;
59263;SDS011;45030;42.720;23.344;2023-04-03T02:28:31;12.27;;;6.80;;
59263;SDS011;45030;42.720;23.344;2023-04-03T02:30:56;11.73;;;7.68;;
59263;SDS011;45030;42.720;23.344;2023-04-03T02:33:21;12.98;;;6.45;;
59263;SDS011;45030;42.720;23.344;2023-04-03T02:35:46;10.55;;;5.18;;
59263;SDS011;45030;42.720;23.344;2023-04-03T02:38:18;9.52;;;5.75;;
59263;SDS011;45030;42.720;23.344;2023-04-03T02:40:43;7.72;;;5.03;;
59263;SDS011;45030;42.720;23.344;2023-04-03T02:43:08;7.38;;;5.82;;
59263;SDS011;45030;42.720;23.344;2023-04-03T02:45:33;12.50;;;6.45;;
59263;SDS011;45030;42.720;23.344;2023-04-03T02:47:59;11.02;;;6.40;;
59263;SDS011;45030;42.720;23.344;2023-04-03T02:50:24;14.48;;;6.72;;
59263;SDS011;45030;42.720;23.344;2023-04-03T02:52:49;9.65;;;6.40;;
59263;SDS011;45030;42.720;23.344;2023-04-03T02:55:14;12.35;;;7.05;;
59263;SDS011;45030;42.720;23.344;2023-04-03T02:57:40;11.00;;;7.53;;
59263;SDS011;45030;42.720;23.344;2023-04-03T03:00:06;12.85;;;7.38;;
59263;SDS011;45030;42.720;23.344;2023-04-03T03:02:31;17.45;;;8.23;;
59263;SDS011;45030;42.720;23.344;2023-04-03T03:04:57;16.33;;;7.10;;
59263;SDS011;45030;42.720;23.344;2023-04-03T03:07:22;17.98;;;7.47;;
59263;SDS011;45030;42.720;23.344;2023-04-03T03:09:47;15.95;;;9.10;;
59263;SDS011;45030;42.720;23.344;2023-04-03T03:12:12;15.27;;;8.32;;
59263;SDS011;45030;42.720;23.344;2023-04-03T03:14:38;13.95;;;7.03;;
59263;SDS011;45030;42.720;23.344;2023-04-03T03:17:03;10.82;;;7.53;;
59263;SDS011;45030;42.720;23.344;2023-04-03T03:19:28;13.50;;;8.48;;
59263;SDS011;45030;42.720;23.344;2023-04-03T03:21:53;13.60;;;8.25;;
59263;SDS011;45030;42.720;23.344;2023-04-03T03:24:19;15.63;;;9.13;;
59263;SDS011;45030;42.720;23.344;2023-04-03T03:26:44;14.20;;;8.60;;
59263;SDS011;45030;42.720;23.344;2023-04-03T03:29:09;12.63;;;9.23;;
59263;SDS011;45030;42.720;23.344;2023-04-03T03:31:35;14.88;;;8.63;;
59263;SDS011;45030;42.720;23.344;2023-04-03T03:34:00;15.20;;;10.00;;
59263;SDS011;45030;42.720;23.344;2023-04-03T03:36:25;18.52;;;9.35;;
59263;SDS011;45030;42.720;23.344;2023-04-03T03:38:50;14.60;;;8.60;;
59263;SDS011;45030;42.720;23.344;2023-04-03T03:41:16;13.48;;;8.68;;
59263;SDS011;45030;42.720;23.344;2023-04-03T03:43:41;20.70;;;10.52;;
59263;SDS011;45030;42.720;23.344;2023-04-03T03:46:06;20.33;;;10.00;;
59263;SDS011;45030;42.720;23.344;2023-04-03T03:48:31;16.08;;;10.23;;
59263;SDS011;45030;42.720;23.344;2023-04-03T03:50:57;18.20;;;11.57;;
59263;SDS011;45030;42.720;23.344;2023-04-03T03:53:22;19.45;;;11.90;;
59263;SDS011;45030;42.720;23.344;2023-04-03T03:55:47;22.67;;;13.15;;
59263;SDS011;45030;42.720;23.344;2023-04-03T03:58:13;25.70;;;15.40;;
59263;SDS011;45030;42.720;23.344;2023-04-03T04:00:38;21.80;;;15.27;;
59263;SDS011;45030;42.720;23.344;2023-04-03T04:03:03;28.23;;;17.00;;
59263;SDS011;45030;42.720;23.344;2023-04-03T04:05:28;47.75;;;25.17;;
59263;SDS011;45030;42.720;23.344;2023-04-03T04:07:54;44.50;;;25.40;;
59263;SDS011;45030;42.720;23.344;2023-04-03T04:10:19;37.80;;;24.00;;
59263;SDS011;45030;42.720;23.344;2023-04-03T04:12:45;39.33;;;23.33;;
59263;SDS011;45030;42.720;23.344;2023-04-03T04:15:10;36.58;;;21.70;;
59263;SDS011;45030;42.720;23.344;2023-04-03T04:17:36;32.53;;;19.20;;
59263;SDS011;45030;42.720;23.344;2023-04-03T04:20:02;23.45;;;13.63;;
59263;SDS011;45030;42.720;23.344;2023-04-03T04:22:27;25.75;;;16.10;;
59263;SDS011;45030;42.720;23.344;2023-04-03T04:24:52;37.97;;;20.63;;
59263;SDS011;45030;42.720;23.344;2023-04-03T04:27:18;35.08;;;19.73;;
59263;SDS011;45030;42.720;23.344;2023-04-03T04:29:43;26.85;;;17.70;;
59263;SDS011;45030;42.720;23.344;2023-04-03T04:32:08;24.27;;;13.45;;
59263;SDS011;45030;42.720;23.344;2023-04-03T04:34:34;27.02;;;14.15;;
59263;SDS011;45030;42.720;23.344;2023-04-03T04:36:59;30.45;;;16.63;;
59263;SDS011;45030;42.720;23.344;2023-04-03T04:39:25;26.17;;;15.38;;
59263;SDS011;45030;42.720;23.344;2023-04-03T04:41:50;25.60;;;13.90;;
59263;SDS011;45030;42.720;23.344;2023-04-03T04:44:15;31.73;;;17.25;;
59263;SDS011;45030;42.720;23.344;2023-04-03T04:46:41;28.65;;;16.35;;
59263;SDS011;45030;42.720;23.344;2023-04-03T04:49:06;28.15;;;15.98;;
59263;SDS011;45030;42.720;23.344;2023-04-03T04:51:31;31.52;;;16.60;;
59263;SDS011;45030;42.720;23.344;2023-04-03T04:53:56;32.67;;;17.88;;
59263;SDS011;45030;42.720;23.344;2023-04-03T04:56:22;53.00;;;28.02;;
59263;SDS011;45030;42.720;23.344;2023-04-03T04:58:47;51.50;;;29.17;;
59263;SDS011;45030;42.720;23.344;2023-04-03T05:01:12;54.65;;;30.50;;
59263;SDS011;45030;42.720;23.344;2023-04-03T05:03:37;54.78;;;32.35;;
59263;SDS011;45030;42.720;23.344;2023-04-03T05:06:03;51.88;;;30.70;;
59263;SDS011;45030;42.720;23.344;2023-04-03T05:08:28;40.67;;;24.10;;
59263;SDS011;45030;42.720;23.344;2023-04-03T05:10:53;39.83;;;25.25;;
59263;SDS011;45030;42.720;23.344;2023-04-03T05:13:19;31.73;;;19.13;;
59263;SDS011;45030;42.720;23.344;2023-04-03T05:15:44;32.42;;;19.08;;
59263;SDS011;45030;42.720;23.344;2023-04-03T05:18:10;30.52;;;18.20;;
59263;SDS011;45030;42.720;23.344;2023-04-03T05:20:35;28.17;;;17.83;;
59263;SDS011;45030;42.720;23.344;2023-04-03T05:23:02;45.78;;;27.33;;
59263;SDS011;45030;42.720;23.344;2023-04-03T05:25:27;53.80;;;29.85;;
59263;SDS011;45030;42.720;23.344;2023-04-03T05:27:53;53.58;;;33.33;;
59263;SDS011;45030;42.720;23.344;2023-04-03T05:30:18;56.03;;;33.95;;
59263;SDS011;45030;42.720;23.344;2023-04-03T05:32:44;52.05;;;33.28;;
59263;SDS011;45030;42.720;23.344;2023-04-03T05:35:09;54.55;;;34.85;;
59263;SDS011;45030;42.720;23.344;2023-04-03T05:37:35;51.28;;;31.27;;
59263;SDS011;45030;42.720;23.344;2023-04-03T05:40:00;39.58;;;23.60;;
59263;SDS011;45030;42.720;23.344;2023-04-03T05:42:25;33.97;;;20.67;;
59263;SDS011;45030;42.720;23.344;2023-04-03T05:44:51;37.60;;;19.45;;
59263;SDS011;45030;42.720;23.344;2023-04-03T05:47:16;35.40;;;19.00;;
59263;SDS011;45030;42.720;23.344;2023-04-03T05:49:42;31.75;;;16.20;;
59263;SDS011;45030;42.720;23.344;2023-04-03T05:52:26;29.40;;;17.67;;
59263;SDS011;45030;42.720;23.344;2023-04-03T05:54:52;27.40;;;14.32;;
59263;SDS011;45030;42.720;23.344;2023-04-03T05:57:17;22.80;;;13.40;;
59263;SDS011;45030;42.720;23.344;2023-04-03T05:59:43;26.58;;;13.23;;
59263;SDS011;45030;42.720;23.344;2023-04-03T06:02:13;32.58;;;14.38;;
59263;SDS011;45030;42.720;23.344;2023-04-03T06:04:39;23.90;;;14.00;;
59263;SDS011;45030;42.720;23.344;2023-04-03T06:07:05;22.70;;;14.25;;
59263;SDS011;45030;42.720;23.344;2023-04-03T06:09:30;16.98;;;10.93;;
59263;SDS011;45030;42.720;23.344;2023-04-03T06:11:56;23.52;;;11.10;;
59263;SDS011;45030;42.720;23.344;2023-04-03T06:14:23;17.65;;;10.65;;
59263;SDS011;45030;42.720;23.344;2023-04-03T06:16:48;24.02;;;12.77;;
59263;SDS011;45030;42.720;23.344;2023-04-03T06:19:14;21.67;;;12.82;;
59263;SDS011;45030;42.720;23.344;2023-04-03T06:21:40;19.67;;;12.77;;
59263;SDS011;45030;42.720;23.344;2023-04-03T06:24:06;17.55;;;10.60;;
59263;SDS011;45030;42.720;23.344;2023-04-03T06:26:31;19.52;;;11.80;;
59263;SDS011;45030;42.720;23.344;2023-04-03T06:28:57;24.70;;;12.18;;
59263;SDS011;45030;42.720;23.344;2023-04-03T06:31:22;18.08;;;10.68;;
59263;SDS011;45030;42.720;23.344;2023-04-03T06:33:47;26.50;;;11.63;;
59263;SDS011;45030;42.720;23.344;2023-04-03T06:36:13;16.45;;;9.02;;
59263;SDS011;45030;42.720;23.344;2023-04-03T06:38:38;13.15;;;8.43;;
59263;SDS011;45030;42.720;23.344;2023-04-03T06:41:04;13.43;;;8.52;;
59263;SDS011;45030;42.720;23.344;2023-04-03T06:43:29;16.20;;;9.63;;
59263;SDS011;45030;42.720;23.344;2023-04-03T06:45:56;17.10;;;9.85;;
59263;SDS011;45030;42.720;23.344;2023-04-03T06:48:21;16.60;;;9.88;;
59263;SDS011;45030;42.720;23.344;2023-04-03T06:50:46;12.60;;;8.15;;
59263;SDS011;45030;42.720;23.344;2023-04-03T06:53:12;20.55;;;9.70;;
59263;SDS011;45030;42.720;23.344;2023-04-03T06:55:37;14.90;;;9.15;;
59263;SDS011;45030;42.720;23.344;2023-04-03T06:58:02;13.90;;;8.98;;
59263;SDS011;45030;42.720;23.344;2023-04-03T07:00:28;15.00;;;8.82;;
59263;SDS011;45030;42.720;23.344;2023-04-03T07:02:53;21.55;;;11.65;;
59263;SDS011;45030;42.720;23.344;2023-04-03T07:05:19;20.23;;;8.80;;
59263;SDS011;45030;42.720;23.344;2023-04-03T07:07:44;17.27;;;9.27;;
59263;SDS011;45030;42.720;23.344;2023-04-03T07:10:09;19.85;;;10.15;;
59263;SDS011;45030;42.720;23.344;2023-04-03T07:12:35;17.17;;;9.40;;
59263;SDS011;45030;42.720;23.344;2023-04-03T07:15:01;16.92;;;8.32;;
59263;SDS011;45030;42.720;23.344;2023-04-03T07:17:26;12.77;;;7.70;;
59263;SDS011;45030;42.720;23.344;2023-04-03T07:19:52;18.35;;;9.43;;
59263;SDS011;45030;42.720;23.344;2023-04-03T07:22:17;13.05;;;7.40;;
59263;SDS011;45030;42.720;23.344;2023-04-03T07:24:42;17.58;;;7.97;;
59263;SDS011;45030;42.720;23.344;2023-04-03T07:27:08;12.23;;;6.80;;
59263;SDS011;45030;42.720;23.344;2023-04-03T07:29:34;15.13;;;6.30;;
59263;SDS011;45030;42.720;23.344;2023-04-03T07:31:59;11.48;;;6.15;;
59263;SDS011;45030;42.720;23.344;2023-04-03T07:34:24;10.93;;;6.35;;
59263;SDS011;45030;42.720;23.344;2023-04-03T07:36:50;12.23;;;6.00;;
59263;SDS011;45030;42.720;23.344;2023-04-03T07:39:15;14.10;;;7.13;;
59263;SDS011;45030;42.720;23.344;2023-04-03T07:41:40;17.88;;;8.55;;
59263;SDS011;45030;42.720;23.344;2023-04-03T07:44:06;16.17;;;10.25;;
59263;SDS011;45030;42.720;23.344;2023-04-03T07:46:34;16.90;;;10.07;;
59263;SDS011;45030;42.720;23.344;2023-04-03T07:48:59;15.93;;;9.77;;
59263;SDS011;45030;42.720;23.344;2023-04-03T07:51:25;22.58;;;11.05;;
59263;SDS011;45030;42.720;23.344;2023-04-03T07:53:51;20.77;;;11.90;;
59263;SDS011;45030;42.720;23.344;2023-04-03T07:56:17;18.92;;;9.43;;
59263;SDS011;45030;42.720;23.344;2023-04-03T07:58:42;18.15;;;8.60;;
59263;SDS011;45030;42.720;23.344;2023-04-03T08:01:07;18.55;;;8.70;;
59263;SDS011;45030;42.720;23.344;2023-04-03T08:03:33;15.80;;;8.50;;
59263;SDS011;45030;42.720;23.344;2023-04-03T08:06:02;14.45;;;8.30;;
59263;SDS011;45030;42.720;23.344;2023-04-03T08:08:28;16.00;;;9.82;;
59263;SDS011;45030;42.720;23.344;2023-04-03T08:10:55;10.85;;;6.95;;
59263;SDS011;45030;42.720;23.344;2023-04-03T08:13:20;9.85;;;7.43;;
59263;SDS011;45030;42.720;23.344;2023-04-03T08:15:46;9.98;;;6.18;;
59263;SDS011;45030;42.720;23.344;2023-04-03T08:18:11;8.60;;;6.35;;
59263;SDS011;45030;42.720;23.344;2023-04-03T08:20:37;10.63;;;7.10;;
59263;SDS011;45030;42.720;23.344;2023-04-03T08:23:03;10.63;;;6.38;;
59263;SDS011;45030;42.720;23.344;2023-04-03T08:25:28;13.30;;;6.40;;
59263;SDS011;45030;42.720;23.344;2023-04-03T08:27:54;10.15;;;6.15;;
59263;SDS011;45030;42.720;23.344;2023-04-03T08:30:20;12.05;;;6.63;;
59263;SDS011;45030;42.720;23.344;2023-04-03T08:32:45;11.65;;;7.00;;
59263;SDS011;45030;42.720;23.344;2023-04-03T08:35:10;11.23;;;7.40;;
59263;SDS011;45030;42.720;23.344;2023-04-03T08:37:36;13.35;;;7.78;;
59263;SDS011;45030;42.720;23.344;2023-04-03T08:40:03;17.17;;;8.60;;
59263;SDS011;45030;42.720;23.344;2023-04-03T08:48:04;23.02;;;10.82;;
59263;SDS011;45030;42.720;23.344;2023-04-03T08:50:33;22.65;;;13.13;;
59263;SDS011;45030;42.720;23.344;2023-04-03T08:52:59;20.92;;;12.27;;
59263;SDS011;45030;42.720;23.344;2023-04-03T08:55:41;21.50;;;9.57;;
59263;SDS011;45030;42.720;23.344;2023-04-03T09:03:14;14.65;;;7.93;;
59263;SDS011;45030;42.720;23.344;2023-04-03T09:10:49;14.30;;;8.35;;
59263;SDS011;45030;42.720;23.344;2023-04-03T09:15:48;15.05;;;8.10;;
59263;SDS011;45030;42.720;23.344;2023-04-03T09:21:05;17.63;;;9.27;;
59263;SDS011;45030;42.720;23.344;2023-04-03T09:23:51;16.15;;;8.38;;
59263;SDS011;45030;42.720;23.344;2023-04-03T09:29:05;15.05;;;8.98;;
59263;SDS011;45030;42.720;23.344;2023-04-03T09:31:41;20.38;;;11.18;;
59263;SDS011;45030;42.720;23.344;2023-04-03T09:34:17;17.17;;;11.30;;
59263;SDS011;45030;42.720;23.344;2023-04-03T09:36:47;23.63;;;12.52;;
59263;SDS011;45030;42.720;23.344;2023-04-03T09:39:14;17.52;;;10.52;;
59263;SDS011;45030;42.720;23.344;2023-04-03T09:41:41;17.40;;;10.13;;
59263;SDS011;45030;42.720;23.344;2023-04-03T09:46:50;19.55;;;9.10;;
59263;SDS011;45030;42.720;23.344;2023-04-03T09:49:16;15.18;;;7.85;;
59263;SDS011;45030;42.720;23.344;2023-04-03T09:51:42;11.45;;;7.30;;
59263;SDS011;45030;42.720;23.344;2023-04-03T09:56:49;12.55;;;7.35;;
59263;SDS011;45030;42.720;23.344;2023-04-03T09:59:15;13.68;;;6.97;;
59263;SDS011;45030;42.720;23.344;2023-04-03T10:01:42;12.23;;;6.47;;
59263;SDS011;45030;42.720;23.344;2023-04-03T10:04:15;12.32;;;7.20;;
59263;SDS011;45030;42.720;23.344;2023-04-03T10:06:42;16.05;;;7.80;;
59263;SDS011;45030;42.720;23.344;2023-04-03T10:09:28;10.25;;;6.35;;
59263;SDS011;45030;42.720;23.344;2023-04-03T10:12:06;12.55;;;6.80;;
59263;SDS011;45030;42.720;23.344;2023-04-03T10:25:04;8.85;;;5.65;;
59263;SDS011;45030;42.720;23.344;2023-04-03T10:27:49;11.88;;;7.90;;
59263;SDS011;45030;42.720;23.344;2023-04-03T10:42:42;9.93;;;5.80;;
59263;SDS011;45030;42.720;23.344;2023-04-03T10:45:19;12.48;;;6.50;;
59263;SDS011;45030;42.720;23.344;2023-04-03T10:50:22;8.18;;;6.07;;
59263;SDS011;45030;42.720;23.344;2023-04-03T10:58:03;15.52;;;7.28;;
59263;SDS011;45030;42.720;23.344;2023-04-03T11:00:35;10.13;;;6.10;;
59263;SDS011;45030;42.720;23.344;2023-04-03T11:03:06;12.43;;;5.03;;
59263;SDS011;45030;42.720;23.344;2023-04-03T11:05:39;12.20;;;6.65;;
59263;SDS011;45030;42.720;23.344;2023-04-03T11:08:08;12.95;;;5.82;;
59263;SDS011;45030;42.720;23.344;2023-04-03T11:10:45;12.07;;;5.07;;
59263;SDS011;45030;42.720;23.344;2023-04-03T11:13:27;10.30;;;5.50;;
59263;SDS011;45030;42.720;23.344;2023-04-03T11:15:55;11.93;;;4.88;;
59263;SDS011;45030;42.720;23.344;2023-04-03T11:18:32;6.43;;;4.05;;
59263;SDS011;45030;42.720;23.344;2023-04-03T11:23:35;8.93;;;4.68;;
59263;SDS011;45030;42.720;23.344;2023-04-03T11:26:35;11.45;;;5.53;;
59263;SDS011;45030;42.720;23.344;2023-04-03T11:28:55;8.70;;;4.93;;
59263;SDS011;45030;42.720;23.344;2023-04-03T11:36:26;11.70;;;3.80;;
59263;SDS011;45030;42.720;23.344;2023-04-03T11:38:54;20.42;;;10.57;;
59263;SDS011;45030;42.720;23.344;2023-04-03T11:41:27;16.45;;;10.85;;
59263;SDS011;45030;42.720;23.344;2023-04-03T11:44:24;12.13;;;8.18;;
59263;SDS011;45030;42.720;23.344;2023-04-03T11:46:55;10.50;;;5.38;;
59263;SDS011;45030;42.720;23.344;2023-04-03T11:52:07;9.60;;;6.40;;
59263;SDS011;45030;42.720;23.344;2023-04-03T11:54:35;9.73;;;5.93;;
59263;SDS011;45030;42.720;23.344;2023-04-03T11:57:22;16.67;;;8.55;;
59263;SDS011;45030;42.720;23.344;2023-04-03T11:59:46;17.17;;;9.15;;
59263;SDS011;45030;42.720;23.344;2023-04-03T12:02:57;13.13;;;7.72;;
59263;SDS011;45030;42.720;23.344;2023-04-03T12:21:21;18.88;;;9.80;;
59263;SDS011;45030;42.720;23.344;2023-04-03T12:26:36;10.73;;;6.57;;
59263;SDS011;45030;42.720;23.344;2023-04-03T12:37:08;18.40;;;12.82;;
59263;SDS011;45030;42.720;23.344;2023-04-03T12:39:36;13.90;;;7.97;;
59263;SDS011;45030;42.720;23.344;2023-04-03T12:47:33;17.10;;;11.05;;
59263;SDS011;45030;42.720;23.344;2023-04-03T12:50:02;9.18;;;6.40;;
59263;SDS011;45030;42.720;23.344;2023-04-03T12:52:33;14.13;;;10.55;;
59263;SDS011;45030;42.720;23.344;2023-04-03T12:55:00;15.90;;;11.45;;
59263;SDS011;45030;42.720;23.344;2023-04-03T12:57:29;10.20;;;8.25;;
59263;SDS011;45030;42.720;23.344;2023-04-03T12:59:54;9.63;;;7.18;;
59263;SDS011;45030;42.720;23.344;2023-04-03T13:02:25;15.73;;;9.52;;
59263;SDS011;45030;42.720;23.344;2023-04-03T13:04:52;8.23;;;5.88;;
59263;SDS011;45030;42.720;23.344;2023-04-03T13:07:22;9.32;;;5.88;;
59263;SDS011;45030;42.720;23.344;2023-04-03T13:09:55;8.75;;;5.45;;
59263;SDS011;45030;42.720;23.344;2023-04-03T13:12:20;15.40;;;7.70;;
59263;SDS011;45030;42.720;23.344;2023-04-03T13:14:54;12.30;;;7.10;;
59263;SDS011;45030;42.720;23.344;2023-04-03T13:17:20;20.70;;;11.23;;
59263;SDS011;45030;42.720;23.344;2023-04-03T13:19:46;21.27;;;13.07;;
59263;SDS011;45030;42.720;23.344;2023-04-03T13:24:43;13.82;;;9.20;;
59263;SDS011;45030;42.720;23.344;2023-04-03T13:27:11;11.27;;;8.30;;
59263;SDS011;45030;42.720;23.344;2023-04-03T13:29:37;11.10;;;8.55;;
59263;SDS011;45030;42.720;23.344;2023-04-03T13:32:04;8.90;;;6.53;;
59263;SDS011;45030;42.720;23.344;2023-04-03T13:34:40;17.50;;;10.73;;
59263;SDS011;45030;42.720;23.344;2023-04-03T13:37:06;11.77;;;7.32;;
59263;SDS011;45030;42.720;23.344;2023-04-03T13:39:37;14.57;;;8.18;;
59263;SDS011;45030;42.720;23.344;2023-04-03T13:42:17;10.80;;;6.97;;
59263;SDS011;45030;42.720;23.344;2023-04-03T13:44:46;11.55;;;7.75;;
59263;SDS011;45030;42.720;23.344;2023-04-03T13:49:41;10.13;;;7.60;;
59263;SDS011;45030;42.720;23.344;2023-04-03T13:54:56;11.90;;;8.77;;
59263;SDS011;45030;42.720;23.344;2023-04-03T13:57:22;16.70;;;11.85;;
59263;SDS011;45030;42.720;23.344;2023-04-03T13:59:47;16.55;;;12.40;;
59263;SDS011;45030;42.720;23.344;2023-04-03T14:02:17;14.98;;;9.88;;
59263;SDS011;45030;42.720;23.344;2023-04-03T14:07:08;17.70;;;8.40;;
59263;SDS011;45030;42.720;23.344;2023-04-03T14:09:33;17.25;;;8.00;;
59263;SDS011;45030;42.720;23.344;2023-04-03T14:12:01;8.68;;;6.93;;
59263;SDS011;45030;42.720;23.344;2023-04-03T14:14:30;11.07;;;6.85;;
59263;SDS011;45030;42.720;23.344;2023-04-03T14:16:57;11.32;;;6.43;;
59263;SDS011;45030;42.720;23.344;2023-04-03T14:19:34;17.25;;;10.73;;
59263;SDS011;45030;42.720;23.344;2023-04-03T14:22:01;13.10;;;7.80;;
59263;SDS011;45030;42.720;23.344;2023-04-03T14:24:30;29.00;;;13.45;;
59263;SDS011;45030;42.720;23.344;2023-04-03T14:26:57;21.05;;;9.90;;
59263;SDS011;45030;42.720;23.344;2023-04-03T14:29:22;13.05;;;9.35;;
59263;SDS011;45030;42.720;23.344;2023-04-03T14:31:48;72.18;;;36.92;;
59263;SDS011;45030;42.720;23.344;2023-04-03T14:34:14;25.27;;;14.98;;
59263;SDS011;45030;42.720;23.344;2023-04-03T14:36:40;32.28;;;17.92;;
59263;SDS011;45030;42.720;23.344;2023-04-03T14:39:06;18.55;;;13.73;;
59263;SDS011;45030;42.720;23.344;2023-04-03T14:41:33;9.20;;;6.45;;
59263;SDS011;45030;42.720;23.344;2023-04-03T14:43:59;29.75;;;15.98;;
59263;SDS011;45030;42.720;23.344;2023-04-03T14:46:32;14.52;;;9.30;;
59263;SDS011;45030;42.720;23.344;2023-04-03T14:48:58;39.90;;;17.25;;
59263;SDS011;45030;42.720;23.344;2023-04-03T14:51:23;29.95;;;14.07;;
59263;SDS011;45030;42.720;23.344;2023-04-03T14:53:48;17.15;;;7.93;;
59263;SDS011;45030;42.720;23.344;2023-04-03T14:56:16;24.65;;;12.50;;
59263;SDS011;45030;42.720;23.344;2023-04-03T14:58:42;17.65;;;9.40;;
59263;SDS011;45030;42.720;23.344;2023-04-03T15:01:09;18.33;;;11.77;;
59263;SDS011;45030;42.720;23.344;2023-04-03T15:03:35;24.70;;;11.32;;
59263;SDS011;45030;42.720;23.344;2023-04-03T15:06:00;11.32;;;7.88;;
59263;SDS011;45030;42.720;23.344;2023-04-03T15:08:27;11.38;;;6.93;;
59263;SDS011;45030;42.720;23.344;2023-04-03T15:10:54;13.45;;;8.27;;
59263;SDS011;45030;42.720;23.344;2023-04-03T15:13:20;15.23;;;7.05;;
59263;SDS011;45030;42.720;23.344;2023-04-03T15:15:46;17.05;;;10.57;;
59263;SDS011;45030;42.720;23.344;2023-04-03T15:18:16;16.42;;;9.30;;
59263;SDS011;45030;42.720;23.344;2023-04-03T15:20:43;23.67;;;12.30;;
59263;SDS011;45030;42.720;23.344;2023-04-03T15:23:09;13.13;;;7.35;;
59263;SDS011;45030;42.720;23.344;2023-04-03T15:25:34;19.52;;;9.25;;
59263;SDS011;45030;42.720;23.344;2023-04-03T15:28:00;11.95;;;9.05;;
59263;SDS011;45030;42.720;23.344;2023-04-03T15:30:25;20.67;;;11.25;;
59263;SDS011;45030;42.720;23.344;2023-04-03T15:32:50;19.55;;;13.73;;
59263;SDS011;45030;42.720;23.344;2023-04-03T15:35:16;10.95;;;6.90;;
59263;SDS011;45030;42.720;23.344;2023-04-03T15:37:41;12.73;;;7.60;;
59263;SDS011;45030;42.720;23.344;2023-04-03T15:40:07;11.43;;;7.47;;
59263;SDS011;45030;42.720;23.344;2023-04-03T15:42:33;21.70;;;13.55;;
59263;SDS011;45030;42.720;23.344;2023-04-03T15:44:58;9.20;;;8.10;;
59263;SDS011;45030;42.720;23.344;2023-04-03T15:47:24;15.82;;;12.30;;
59263;SDS011;45030;42.720;23.344;2023-04-03T15:49:49;15.93;;;10.70;;
59263;SDS011;45030;42.720;23.344;2023-04-03T15:52:15;28.52;;;18.77;;
59263;SDS011;45030;42.720;23.344;2023-04-03T15:54:40;23.20;;;17.48;;
59263;SDS011;45030;42.720;23.344;2023-04-03T15:57:05;13.38;;;9.88;;
59263;SDS011;45030;42.720;23.344;2023-04-03T15:59:31;14.93;;;8.55;;
59263;SDS011;45030;42.720;23.344;2023-04-03T16:01:57;10.23;;;6.13;;
59263;SDS011;45030;42.720;23.344;2023-04-03T16:04:23;11.90;;;6.65;;
59263;SDS011;45030;42.720;23.344;2023-04-03T16:06:49;15.48;;;11.50;;
59263;SDS011;45030;42.720;23.344;2023-04-03T16:09:14;13.73;;;11.20;;
59263;SDS011;45030;42.720;23.344;2023-04-03T16:11:39;11.90;;;10.13;;
59263;SDS011;45030;42.720;23.344;2023-04-03T16:14:05;7.95;;;6.60;;
59263;SDS011;45030;42.720;23.344;2023-04-03T16:16:31;25.90;;;12.23;;